Time;durP1;ratioP1;P1;durP2;ratioP2;P2;SDS_P1;SDS_P2;PMS_P1;PMS_P2;Temp;Humidity;BMP_temperature;BMP_pressure;BME280_temperature;BME280_humidity;BME280_pressure;Samples;Min_cycle;Max_cycle;Signal;HPM_P1;HPM_P2
2020/03/09 00:00:14;;;;;;;3.4;2.1;;;;;;;4.72;64.53125;934.0697;;;;
2020/03/09 00:02:39;;;;;;;3.2;2.2;;;;;;;4.69;64.9668;934.2316;;;;
2020/03/09 00:05:04;;;;;;;3.1;2.2;;;;;;;4.5;66.16504;934.2651;;;;
2020/03/09 00:07:29;;;;;;;3.3;2.3;;;;;;;4.36;67.08887;934.2897;;;;
2020/03/09 00:09:55;;;;;;;4.8;2.3;;;;;;;4.45;66.86523;934.3071;;;;
2020/03/09 00:12:20;;;;;;;4;2.3;;;;;;;4.33;67.36523;934.2817;;;;
2020/03/09 00:14:45;;;;;;;4.8;2.7;;;;;;;4.2;67.56836;934.1621;;;;
2020/03/09 00:17:10;;;;;;;5.2;3;;;;;;;4.13;67.97656;934.2235;;;;
2020/03/09 00:19:35;;;;;;;6.4;3.7;;;;;;;4.12;68.04102;934.1278;;;;
2020/03/09 00:22:00;;;;;;;8.1;3.9;;;;;;;4.27;67.36621;934.2076;;;;
2020/03/09 00:24:26;;;;;;;9.5;4.9;;;;;;;4.24;67.02441;934.2093;;;;
2020/03/09 00:26:51;;;;;;;8.9;4.8;;;;;;;3.92;67.89551;934.2488;;;;
2020/03/09 00:29:16;;;;;;;8.6;5.1;;;;;;;3.92;68.31152;934.2292;;;;
2020/03/09 00:31:43;;;;;;;10.1;5.2;;;;;;;4.04;67.81445;934.2784;;;;
2020/03/09 00:34:08;;;;;;;8.9;5.1;;;;;;;4.16;67.14844;934.14;;;;
2020/03/09 00:36:33;;;;;;;7.8;4.6;;;;;;;4.18;67.0498;934.1594;;;;
2020/03/09 00:38:58;;;;;;;7.9;4.7;;;;;;;4.21;67.16602;934.1699;;;;
2020/03/09 00:41:23;;;;;;;10.2;5.3;;;;;;;4.15;67.30273;934.2263;;;;
2020/03/09 00:43:48;;;;;;;8.5;5;;;;;;;4.09;67.23633;934.1892;;;;
2020/03/09 00:46:13;;;;;;;9.6;5.5;;;;;;;4.02;67.24902;934.2039;;;;
2020/03/09 00:48:38;;;;;;;11.3;5.2;;;;;;;3.98;67.62598;934.0978;;;;
2020/03/09 00:51:03;;;;;;;6.4;3.7;;;;;;;4.06;67.0752;934.1594;;;;
2020/03/09 00:53:28;;;;;;;6.5;3.7;;;;;;;4.14;67.29004;934.1976;;;;
2020/03/09 00:55:53;;;;;;;5.6;3.6;;;;;;;4.18;66.83594;934.1397;;;;
2020/03/09 00:58:19;;;;;;;4.6;3.1;;;;;;;4.24;66.70898;934.1313;;;;
2020/03/09 01:00:52;;;;;;;5.7;3;;;;;;;4.26;66.56738;934.0609;;;;
2020/03/09 01:03:14;;;;;;;5.1;3.2;;;;;;;4.37;66.57324;934.1308;;;;
2020/03/09 01:05:34;;;;;;;4.5;2.5;;;;;;;4.43;66.50293;934.1553;;;;
2020/03/09 01:07:59;;;;;;;3.3;2;;;;;;;4.45;65.49219;934.092;;;;
2020/03/09 01:10:24;;;;;;;2.6;1.7;;;;;;;4.36;65.13086;934.1486;;;;
2020/03/09 01:12:49;;;;;;;3.8;2.1;;;;;;;4.39;65.13477;934.1392;;;;
2020/03/09 01:15:14;;;;;;;3.8;2.1;;;;;;;4.43;65.0957;934.0656;;;;
2020/03/09 01:17:39;;;;;;;3.9;1.9;;;;;;;4.47;64.8877;934.1428;;;;
2020/03/09 01:20:05;;;;;;;2.4;1.9;;;;;;;4.38;65.51465;934.1033;;;;
2020/03/09 01:22:30;;;;;;;3;1.8;;;;;;;4.46;65.19141;934.1498;;;;
2020/03/09 01:24:55;;;;;;;2.3;1.6;;;;;;;4.16;65.5957;934.0769;;;;
2020/03/09 01:27:20;;;;;;;2.6;1.7;;;;;;;4.25;64.69629;934.0172;;;;
2020/03/09 01:29:46;;;;;;;3;1.9;;;;;;;4.4;64.66406;933.9994;;;;
2020/03/09 01:32:11;;;;;;;3.7;2.1;;;;;;;4.41;64.42871;933.994;;;;
2020/03/09 01:34:36;;;;;;;4.2;2.3;;;;;;;4.52;64.68164;933.9266;;;;
2020/03/09 01:37:01;;;;;;;3.6;2.4;;;;;;;4.65;64.59961;933.9246;;;;
2020/03/09 01:39:26;;;;;;;3.2;2.1;;;;;;;4.64;64.0459;933.8336;;;;
2020/03/09 01:41:51;;;;;;;2.2;1.7;;;;;;;4.59;64.28711;933.8242;;;;
2020/03/09 01:44:16;;;;;;;2.4;1.9;;;;;;;4.44;65.40234;933.8483;;;;
2020/03/09 01:46:42;;;;;;;4.2;2.3;;;;;;;4.38;66.02148;933.8488;;;;
2020/03/09 01:49:07;;;;;;;5.3;3;;;;;;;4.13;67.8623;933.865;;;;
2020/03/09 01:51:32;;;;;;;6.1;3.5;;;;;;;4.01;68.21289;933.8018;;;;
2020/03/09 01:53:57;;;;;;;5.7;3.3;;;;;;;3.97;67.9502;933.8542;;;;
2020/03/09 01:56:23;;;;;;;4.5;3.1;;;;;;;4.06;67.79492;933.8583;;;;
2020/03/09 01:58:49;;;;;;;5.3;3;;;;;;;4.15;67.75293;933.8338;;;;
2020/03/09 02:01:14;;;;;;;4.4;3;;;;;;;4.12;67.92871;933.8262;;;;
2020/03/09 02:03:39;;;;;;;5.6;3.4;;;;;;;4.14;67.9541;933.8494;;;;
2020/03/09 02:06:04;;;;;;;5.4;2.9;;;;;;;4.2;67.94141;933.8274;;;;
2020/03/09 02:08:29;;;;;;;4.7;2.6;;;;;;;4.26;67.87109;933.8298;;;;
2020/03/09 02:10:55;;;;;;;4;2.7;;;;;;;4.08;68.2041;933.8236;;;;
2020/03/09 02:13:20;;;;;;;4.3;2.5;;;;;;;3.97;68.83887;933.7913;;;;
2020/03/09 02:15:46;;;;;;;3.4;2.7;;;;;;;3.89;69.0166;933.7559;;;;
2020/03/09 02:18:11;;;;;;;4.6;2.9;;;;;;;3.96;68.7793;933.7831;;;;
2020/03/09 02:20:36;;;;;;;4.6;2.6;;;;;;;3.88;69.18359;933.7242;;;;
2020/03/09 02:23:01;;;;;;;4;2.8;;;;;;;3.87;69.42773;933.7428;;;;
2020/03/09 02:25:26;;;;;;;11.8;3.2;;;;;;;3.83;69.59082;933.7511;;;;
2020/03/09 02:27:51;;;;;;;4.8;2.6;;;;;;;3.69;70.12891;933.6841;;;;
2020/03/09 02:30:18;;;;;;;3.6;2.7;;;;;;;3.68;70.2627;933.7003;;;;
2020/03/09 02:32:43;;;;;;;3.1;2.4;;;;;;;3.79;69.72949;933.6954;;;;
2020/03/09 02:35:08;;;;;;;4.8;2.8;;;;;;;3.8;69.94434;933.6555;;;;
2020/03/09 02:37:33;;;;;;;5.2;2.9;;;;;;;3.67;69.94629;933.7442;;;;
2020/03/09 02:39:58;;;;;;;6.3;3.2;;;;;;;3.7;69.86035;933.7575;;;;
2020/03/09 02:42:23;;;;;;;8.8;3.1;;;;;;;3.61;69.66602;933.7581;;;;
2020/03/09 02:44:49;;;;;;;6.1;2.7;;;;;;;3.51;69.85254;933.7;;;;
2020/03/09 02:47:14;;;;;;;11;2.8;;;;;;;3.45;69.41699;933.8147;;;;
2020/03/09 02:49:39;;;;;;;6.4;2.4;;;;;;;3.44;69.80859;933.8074;;;;
2020/03/09 02:52:04;;;;;;;9.1;3.3;;;;;;;3.46;70.1709;933.7947;;;;
2020/03/09 02:54:29;;;;;;;8.3;2.9;;;;;;;3.59;69.45996;933.7289;;;;
2020/03/09 02:56:54;;;;;;;4.3;2.6;;;;;;;3.74;69.44141;933.7477;;;;
2020/03/09 02:59:19;;;;;;;3.7;2.1;;;;;;;3.66;69.65234;933.6841;;;;
2020/03/09 03:01:44;;;;;;;2.9;2;;;;;;;3.45;70.31543;933.6551;;;;
2020/03/09 03:04:10;;;;;;;2.8;1.9;;;;;;;3.21;71.19531;933.5787;;;;
2020/03/09 03:06:35;;;;;;;2.7;1.8;;;;;;;3.25;71.01074;933.5325;;;;
2020/03/09 03:09:00;;;;;;;3.1;1.8;;;;;;;3.22;71.05078;933.493;;;;
2020/03/09 03:11:26;;;;;;;3.3;2;;;;;;;3.26;70.82227;933.5793;;;;
2020/03/09 03:13:51;;;;;;;2.8;1.8;;;;;;;3.28;70.80273;933.5901;;;;
2020/03/09 03:16:16;;;;;;;4.4;2.1;;;;;;;3.33;70.54102;933.605;;;;
2020/03/09 03:18:41;;;;;;;3.7;2.1;;;;;;;3.36;70.38867;933.623;;;;
2020/03/09 03:21:07;;;;;;;2.8;1.9;;;;;;;3.33;70.2959;933.62;;;;
2020/03/09 03:23:32;;;;;;;3.5;2;;;;;;;3.36;70.54688;933.5894;;;;
2020/03/09 03:25:57;;;;;;;3.8;1.9;;;;;;;3.32;70.55273;933.6078;;;;
2020/03/09 03:28:22;;;;;;;6.5;2;;;;;;;3.28;70.76758;933.5744;;;;
2020/03/09 03:30:47;;;;;;;9.4;3.6;;;;;;;3.14;71.18457;933.5709;;;;
2020/03/09 03:33:12;;;;;;;4.9;2.8;;;;;;;3.22;70.79297;933.5041;;;;
2020/03/09 03:35:37;;;;;;;4.1;2.6;;;;;;;3.26;70.41797;933.4629;;;;
2020/03/09 03:38:03;;;;;;;4.7;2.2;;;;;;;3.39;69.78809;933.6436;;;;
2020/03/09 03:40:28;;;;;;;3;1.8;;;;;;;3.45;69.76367;933.5274;;;;
2020/03/09 03:42:53;;;;;;;2.3;1.6;;;;;;;3.63;68.82617;933.5201;;;;
2020/03/09 03:45:18;;;;;;;7.9;2.1;;;;;;;3.75;68.42969;933.6037;;;;
2020/03/09 03:47:43;;;;;;;2.9;1.6;;;;;;;3.81;67.87891;933.5326;;;;
2020/03/09 03:50:08;;;;;;;4.9;4.4;;;;;;;3.88;67.65332;933.4973;;;;
2020/03/09 03:52:33;;;;;;;2.9;2;;;;;;;3.96;67.30664;933.4696;;;;
2020/03/09 03:54:58;;;;;;;3.5;1.6;;;;;;;3.87;67.37109;933.3837;;;;
2020/03/09 03:57:24;;;;;;;3.3;1.9;;;;;;;3.67;68.60938;933.3387;;;;
2020/03/09 03:59:49;;;;;;;4.5;2.3;;;;;;;3.61;68.94727;933.4229;;;;
2020/03/09 04:02:30;;;;;;;3;1.8;;;;;;;3.56;69.39941;933.4872;;;;
2020/03/09 04:04:55;;;;;;;2.6;1.8;;;;;;;3.56;69.83691;933.4849;;;;
2020/03/09 04:07:20;;;;;;;2.8;1.7;;;;;;;3.49;69.38867;933.4593;;;;
2020/03/09 04:09:45;;;;;;;2.5;1.7;;;;;;;3.48;69.87012;933.5048;;;;
2020/03/09 04:12:10;;;;;;;3.7;1.8;;;;;;;3.47;69.53223;933.4235;;;;
2020/03/09 04:14:35;;;;;;;6.1;2;;;;;;;3.56;69.1084;933.4244;;;;
2020/03/09 04:17:00;;;;;;;4.4;1.7;;;;;;;3.68;68.52051;933.383;;;;
2020/03/09 04:19:25;;;;;;;4.5;1.7;;;;;;;3.76;68.27539;933.4843;;;;
2020/03/09 04:21:50;;;;;;;3.5;1.9;;;;;;;3.83;68.10742;933.4221;;;;
2020/03/09 04:24:15;;;;;;;4.2;2;;;;;;;3.85;68.30078;933.4855;;;;
2020/03/09 04:26:41;;;;;;;8.4;2.2;;;;;;;3.88;68.47559;933.5201;;;;
2020/03/09 04:29:05;;;;;;;7.1;1.9;;;;;;;3.93;68.26758;933.4662;;;;
2020/03/09 04:31:31;;;;;;;7.1;1.8;;;;;;;4.03;67.8916;933.478;;;;
2020/03/09 04:33:56;;;;;;;4.4;2.1;;;;;;;3.87;68.5625;933.4734;;;;
2020/03/09 04:36:21;;;;;;;2.7;1.5;;;;;;;3.74;68.92383;933.4879;;;;
2020/03/09 04:38:46;;;;;;;2.1;1.5;;;;;;;3.75;68.91309;933.4069;;;;
2020/03/09 04:41:11;;;;;;;11.9;3.1;;;;;;;3.77;69.09766;933.4249;;;;
2020/03/09 04:43:36;;;;;;;5.4;4;;;;;;;3.83;69.12891;933.4651;;;;
2020/03/09 04:46:01;;;;;;;6.7;3.8;;;;;;;3.88;68.91406;933.4927;;;;
2020/03/09 04:48:27;;;;;;;8.6;3.5;;;;;;;3.79;69.21289;933.3962;;;;
2020/03/09 04:50:52;;;;;;;5.4;2.8;;;;;;;3.82;69.61035;933.509;;;;
2020/03/09 04:53:17;;;;;;;5.6;2.9;;;;;;;3.84;68.69336;933.4892;;;;
2020/03/09 04:55:43;;;;;;;7.1;4.2;;;;;;;3.94;68.65137;933.45;;;;
2020/03/09 04:58:08;;;;;;;7.9;4.2;;;;;;;3.92;69.08887;933.4425;;;;
2020/03/09 05:00:33;;;;;;;7.4;4.5;;;;;;;3.98;69.07617;933.459;;;;
2020/03/09 05:02:58;;;;;;;6;4.3;;;;;;;4.04;68.96094;933.449;;;;
2020/03/09 05:05:23;;;;;;;8.6;3.5;;;;;;;4.13;68.67188;933.3969;;;;
2020/03/09 05:07:49;;;;;;;6.2;3;;;;;;;4.06;68.80664;933.3755;;;;
2020/03/09 05:10:14;;;;;;;5.3;2.8;;;;;;;4.06;69.07617;933.3006;;;;
2020/03/09 05:12:39;;;;;;;7.2;3;;;;;;;4.02;69.50977;933.3059;;;;
2020/03/09 05:15:04;;;;;;;8.5;3.1;;;;;;;4.01;69.16895;933.2866;;;;
2020/03/09 05:17:29;;;;;;;8.1;4.4;;;;;;;3.94;70.44043;933.28;;;;
2020/03/09 05:19:54;;;;;;;7.8;5.1;;;;;;;3.89;70.33203;933.3118;;;;
2020/03/09 05:22:19;;;;;;;10.4;6.4;;;;;;;3.95;70.87109;933.2283;;;;
2020/03/09 05:24:47;;;;;;;10;5.9;;;;;;;4.02;70.74512;933.2751;;;;
2020/03/09 05:27:09;;;;;;;8.5;3.5;;;;;;;4.09;69.71094;933.3108;;;;
2020/03/09 05:29:34;;;;;;;9.5;2.8;;;;;;;4.03;69.43164;933.2927;;;;
2020/03/09 05:31:59;;;;;;;6.7;3.3;;;;;;;4.04;69.35449;933.315;;;;
2020/03/09 05:34:25;;;;;;;24.9;3.8;;;;;;;4.02;69.09375;933.2878;;;;
2020/03/09 05:36:50;;;;;;;8.8;2.5;;;;;;;3.98;69.51367;933.3321;;;;
2020/03/09 05:39:16;;;;;;;26.8;4.1;;;;;;;4;69.54004;933.272;;;;
2020/03/09 05:41:40;;;;;;;14.6;2.9;;;;;;;3.85;70.06543;933.3234;;;;
2020/03/09 05:44:05;;;;;;;8;2.2;;;;;;;3.66;70.65234;933.3117;;;;
2020/03/09 05:46:31;;;;;;;8.1;2.3;;;;;;;3.57;70.96191;933.3191;;;;
2020/03/09 05:48:56;;;;;;;5.9;2.6;;;;;;;3.51;71.2334;933.4189;;;;
2020/03/09 05:51:21;;;;;;;8.7;4.1;;;;;;;3.54;71.00195;933.3764;;;;
2020/03/09 05:53:46;;;;;;;10.5;4.2;;;;;;;3.57;71.14355;933.4073;;;;
2020/03/09 05:56:11;;;;;;;13.4;4.2;;;;;;;3.7;71.0293;933.3953;;;;
2020/03/09 05:58:36;;;;;;;15.6;4.4;;;;;;;3.66;71.31445;933.4997;;;;
2020/03/09 06:01:02;;;;;;;16.5;3.7;;;;;;;3.43;71.64648;933.4883;;;;
2020/03/09 06:03:27;;;;;;;14.9;3.2;;;;;;;3.33;72.14648;933.4719;;;;
2020/03/09 06:05:52;;;;;;;14.9;3;;;;;;;3.38;71.8291;933.5173;;;;
2020/03/09 06:08:18;;;;;;;17.3;3.2;;;;;;;3.44;71.85059;933.4997;;;;
2020/03/09 06:10:43;;;;;;;21.6;3.3;;;;;;;3.61;70.85742;933.5134;;;;
2020/03/09 06:13:08;;;;;;;22.4;3.7;;;;;;;3.8;70.00195;933.5386;;;;
2020/03/09 06:15:33;;;;;;;15.8;3.8;;;;;;;3.83;69.99512;933.5535;;;;
2020/03/09 06:17:58;;;;;;;21.4;5.2;;;;;;;4.05;69.45605;933.4736;;;;
2020/03/09 06:20:23;;;;;;;20.7;6;;;;;;;4.16;69.20508;933.608;;;;
2020/03/09 06:22:48;;;;;;;12.9;3.7;;;;;;;4.31;68.9248;933.5876;;;;
2020/03/09 06:25:13;;;;;;;13.6;3.7;;;;;;;4.28;68.93164;933.5845;;;;
2020/03/09 06:27:38;;;;;;;22.1;3.8;;;;;;;4.24;69.62305;933.6538;;;;
2020/03/09 06:30:04;;;;;;;13;3.6;;;;;;;4.13;69.85352;933.6649;;;;
2020/03/09 06:32:29;;;;;;;11.8;2.9;;;;;;;4.03;70.34473;933.671;;;;
2020/03/09 06:34:54;;;;;;;13.7;3.2;;;;;;;4.08;70.22656;933.6564;;;;
2020/03/09 06:37:20;;;;;;;8;3.3;;;;;;;4.03;69.50098;933.5969;;;;
2020/03/09 06:39:45;;;;;;;10.4;4;;;;;;;4.06;69.34668;933.6581;;;;
2020/03/09 06:42:10;;;;;;;5.3;2.9;;;;;;;3.99;69.61621;933.5798;;;;
2020/03/09 06:44:35;;;;;;;10;2.8;;;;;;;4.06;69.67285;933.6788;;;;
2020/03/09 06:47:01;;;;;;;23.8;8.1;;;;;;;4.22;69.80078;933.7242;;;;
2020/03/09 06:49:26;;;;;;;40.4;13.3;;;;;;;4.48;68.64844;933.771;;;;
2020/03/09 06:51:51;;;;;;;54.4;19.5;;;;;;;4.43;68.27148;933.7567;;;;
2020/03/09 06:54:16;;;;;;;53.8;20.8;;;;;;;4.49;67.875;933.7927;;;;
2020/03/09 06:56:41;;;;;;;62.2;21.6;;;;;;;4.62;67.70313;933.8284;;;;
2020/03/09 06:59:06;;;;;;;66.8;21.9;;;;;;;4.87;67.13477;933.8127;;;;
2020/03/09 07:01:31;;;;;;;45.9;16.1;;;;;;;5.13;66.08301;933.7794;;;;
2020/03/09 07:03:56;;;;;;;38.4;14.9;;;;;;;5.32;65.65918;933.8603;;;;
2020/03/09 07:06:21;;;;;;;28.3;10.7;;;;;;;5.4;64.73535;933.7997;;;;
2020/03/09 07:08:46;;;;;;;26.1;9.5;;;;;;;5.48;64.60254;933.7797;;;;
2020/03/09 07:11:12;;;;;;;18.5;7;;;;;;;5.44;64.96777;933.8348;;;;
2020/03/09 07:13:37;;;;;;;12.4;5.3;;;;;;;5.48;64.75879;933.8727;;;;
2020/03/09 07:16:15;;;;;;;11.6;4.1;;;;;;;5.41;64.81738;933.9511;;;;
2020/03/09 07:18:27;;;;;;;13.7;3.5;;;;;;;5.62;64.36328;933.8982;;;;
2020/03/09 07:20:52;;;;;;;12.1;4.1;;;;;;;5.74;63.52246;933.8467;;;;
2020/03/09 07:23:17;;;;;;;13;4;;;;;;;5.82;63.25293;933.8392;;;;
2020/03/09 07:25:42;;;;;;;11;3.3;;;;;;;5.69;63.92285;933.8664;;;;
2020/03/09 07:28:07;;;;;;;9;3;;;;;;;5.73;64.35742;933.8538;;;;
2020/03/09 07:30:32;;;;;;;9.8;3;;;;;;;5.69;64.54395;933.8869;;;;
2020/03/09 07:32:57;;;;;;;9.4;3.4;;;;;;;5.7;63.42578;933.8254;;;;
2020/03/09 07:35:22;;;;;;;7.7;3.8;;;;;;;5.63;64.00293;933.8501;;;;
2020/03/09 07:37:48;;;;;;;12.1;4.6;;;;;;;5.63;64.45508;933.8723;;;;
2020/03/09 07:40:13;;;;;;;15;4.2;;;;;;;5.67;63.82813;933.8848;;;;
2020/03/09 07:42:38;;;;;;;12;5.8;;;;;;;5.79;62.70605;933.8494;;;;
2020/03/09 07:45:03;;;;;;;21.2;5.8;;;;;;;6.02;62.85352;933.907;;;;
2020/03/09 07:47:28;;;;;;;9.8;2.9;;;;;;;6.17;60.98633;933.8425;;;;
2020/03/09 07:49:53;;;;;;;12.9;3.2;;;;;;;6.36;61.60156;933.9356;;;;
2020/03/09 07:52:18;;;;;;;10.6;2.3;;;;;;;6.43;61.12695;933.9175;;;;
2020/03/09 07:54:43;;;;;;;7.2;2.4;;;;;;;6.69;60.03223;933.9666;;;;
2020/03/09 07:57:08;;;;;;;13.4;2.4;;;;;;;6.81;59.7998;933.8904;;;;
2020/03/09 07:59:34;;;;;;;6.2;2;;;;;;;6.95;58.78711;933.9543;;;;
2020/03/09 08:01:59;;;;;;;4.9;2;;;;;;;7.07;57.25293;933.9011;;;;
2020/03/09 08:04:24;;;;;;;7.3;2;;;;;;;7.21;56.17285;933.9241;;;;
2020/03/09 08:06:49;;;;;;;4.8;1.6;;;;;;;7.24;55.32813;933.9642;;;;
2020/03/09 08:09:14;;;;;;;7.4;2.1;;;;;;;7.41;56.25586;933.9329;;;;
2020/03/09 08:11:39;;;;;;;4.1;1.7;;;;;;;7.56;54.67676;933.9952;;;;
2020/03/09 08:14:04;;;;;;;7.2;1.8;;;;;;;7.85;54.15918;934.0075;;;;
2020/03/09 08:16:29;;;;;;;3.2;1.8;;;;;;;7.64;53.30371;933.9712;;;;
2020/03/09 08:18:55;;;;;;;8.4;2.1;;;;;;;7.68;54.22656;934.0383;;;;
2020/03/09 08:21:20;;;;;;;11.6;2.1;;;;;;;7.74;54.10938;934.0017;;;;
2020/03/09 08:23:45;;;;;;;5.6;2;;;;;;;7.85;54.25879;934.0463;;;;
2020/03/09 08:26:10;;;;;;;22.8;3;;;;;;;8.03;54.41797;934.0748;;;;
2020/03/09 08:28:35;;;;;;;7;2.3;;;;;;;8.12;53.66895;934.0355;;;;
2020/03/09 08:31:00;;;;;;;5.5;2.1;;;;;;;8.16;53.95898;934.074;;;;
2020/03/09 08:33:26;;;;;;;6.5;2.5;;;;;;;8.32;53.55859;934.1086;;;;
2020/03/09 08:35:51;;;;;;;6;2.4;;;;;;;8.44;53.62988;934.1264;;;;
2020/03/09 08:38:16;;;;;;;10.6;2.2;;;;;;;8.42;54.32031;934.204;;;;
2020/03/09 08:40:42;;;;;;;6.7;2.2;;;;;;;8.61;54.95703;934.2519;;;;
2020/03/09 08:43:07;;;;;;;6.8;2.2;;;;;;;8.59;55.39941;934.293;;;;
2020/03/09 08:45:32;;;;;;;3.9;1.8;;;;;;;8.48;56.31738;934.3086;;;;
2020/03/09 08:47:57;;;;;;;7.2;1.8;;;;;;;8.6;56.68457;934.3677;;;;
2020/03/09 08:50:22;;;;;;;7.3;1.7;;;;;;;8.33;57.43262;934.4047;;;;
2020/03/09 08:52:48;;;;;;;5.4;2.5;;;;;;;8.56;57.07617;934.4101;;;;
2020/03/09 08:55:13;;;;;;;5;1.7;;;;;;;8.71;57.07324;934.4587;;;;
2020/03/09 08:57:38;;;;;;;4.2;1.6;;;;;;;8.79;57.25391;934.4341;;;;
2020/03/09 09:00:04;;;;;;;5.5;1.9;;;;;;;8.79;58.69824;934.4817;;;;
2020/03/09 09:02:29;;;;;;;2.8;1.3;;;;;;;8.82;57.4082;934.4952;;;;
2020/03/09 09:04:54;;;;;;;2.8;1.2;;;;;;;8.83;55.99902;934.4944;;;;
2020/03/09 09:07:19;;;;;;;3;1.6;;;;;;;8.87;56.12891;934.5369;;;;
2020/03/09 09:09:44;;;;;;;4.6;1.8;;;;;;;8.93;56.8877;934.4597;;;;
2020/03/09 09:12:09;;;;;;;2.7;1.5;;;;;;;8.99;56.00781;934.5356;;;;
2020/03/09 09:14:34;;;;;;;2.4;1.4;;;;;;;9.05;56.25488;934.5881;;;;
2020/03/09 09:16:59;;;;;;;1.9;1.3;;;;;;;9.06;56.76855;934.6819;;;;
2020/03/09 09:19:24;;;;;;;3;1.6;;;;;;;9.18;58.09277;934.6989;;;;
2020/03/09 09:21:49;;;;;;;4.6;1.6;;;;;;;8.87;60.22266;934.6838;;;;
2020/03/09 09:24:14;;;;;;;2.3;1.5;;;;;;;8.51;61.54785;934.7531;;;;
2020/03/09 09:26:39;;;;;;;3;1.6;;;;;;;8.62;62.08691;934.7214;;;;
2020/03/09 09:29:04;;;;;;;4.7;1.5;;;;;;;8.61;62.21191;934.815;;;;
2020/03/09 09:31:29;;;;;;;3.5;1.8;;;;;;;8.62;62.49609;934.8784;;;;
2020/03/09 09:33:55;;;;;;;1.7;1.3;;;;;;;8.6;63.20898;934.8494;;;;
2020/03/09 09:36:20;;;;;;;2.7;1.4;;;;;;;8.57;65.4668;934.8102;;;;
2020/03/09 09:38:45;;;;;;;2.7;1.3;;;;;;;8.63;64.98828;934.8628;;;;
2020/03/09 09:41:10;;;;;;;3.6;1.3;;;;;;;8.74;66.67578;934.8917;;;;
2020/03/09 09:43:35;;;;;;;2.8;1.4;;;;;;;8.82;64.8916;934.985;;;;
2020/03/09 09:46:00;;;;;;;1.7;1.1;;;;;;;8.83;64.90234;934.9794;;;;
2020/03/09 09:48:25;;;;;;;5.2;1.2;;;;;;;8.82;65.24414;935.027;;;;
2020/03/09 09:50:51;;;;;;;2.1;1.1;;;;;;;8.72;66.28516;935.1224;;;;
2020/03/09 09:53:16;;;;;;;2;1.2;;;;;;;8.64;66.45605;935.1153;;;;
2020/03/09 09:55:41;;;;;;;2.4;1.1;;;;;;;8.74;66.37891;935.1465;;;;
2020/03/09 09:58:06;;;;;;;1.8;0.9;;;;;;;8.81;67.0166;935.104;;;;
2020/03/09 10:00:31;;;;;;;1.8;0.9;;;;;;;8.99;66.11035;935.1646;;;;
2020/03/09 10:02:56;;;;;;;1.3;1;;;;;;;9.05;66.2793;935.1297;;;;
2020/03/09 10:05:21;;;;;;;2.3;1.1;;;;;;;9.18;64.26172;935.1763;;;;
2020/03/09 10:07:46;;;;;;;1.8;1.1;;;;;;;9.21;65.84766;935.1594;;;;
2020/03/09 10:10:12;;;;;;;1;0.9;;;;;;;9.13;65.64355;935.1622;;;;
2020/03/09 10:12:37;;;;;;;1.7;1;;;;;;;9.09;65.83008;935.2238;;;;
2020/03/09 10:15:02;;;;;;;1.8;1.2;;;;;;;9.19;64.78516;935.2208;;;;
2020/03/09 10:17:27;;;;;;;2;1.1;;;;;;;9.29;65.93945;935.2537;;;;
2020/03/09 10:19:52;;;;;;;2.3;1.1;;;;;;;9.32;65.375;935.2247;;;;
2020/03/09 10:22:17;;;;;;;1.6;1.1;;;;;;;9.46;66.96875;935.3017;;;;
2020/03/09 10:24:53;;;;;;;2.7;1.3;;;;;;;9.25;67.71973;935.2852;;;;
2020/03/09 10:27:18;;;;;;;3.3;1.6;;;;;;;9.47;67.65332;935.2835;;;;
2020/03/09 10:29:43;;;;;;;3.3;1.8;;;;;;;9.51;67.92188;935.3077;;;;
2020/03/09 10:32:08;;;;;;;4.9;2.2;;;;;;;9.63;66.8125;935.3074;;;;
2020/03/09 10:34:33;;;;;;;5.9;2.5;;;;;;;9.66;67.79688;935.3546;;;;
2020/03/09 10:36:58;;;;;;;7.3;3.8;;;;;;;9.77;68.31543;935.31;;;;
2020/03/09 10:39:25;;;;;;;20;7.7;;;;;;;9.81;69.58789;935.2944;;;;
2020/03/09 10:41:49;;;;;;;2.8;1.7;;;;;;;9.55;68.52051;935.3605;;;;
2020/03/09 10:44:14;;;;;;;3.8;1.7;;;;;;;9.59;68.78906;935.3903;;;;
2020/03/09 10:46:39;;;;;;;3;1.2;;;;;;;9.05;70.49902;935.3837;;;;
2020/03/09 10:49:04;;;;;;;2.1;1.4;;;;;;;9.18;71.66016;935.4313;;;;
2020/03/09 17:30:49;;;;;;;2.5;1.5;;;;;;;9.11;60.18848;937.5829;;;;
2020/03/09 17:33:15;;;;;;;8.2;2.1;;;;;;;9.11;60.81543;937.5839;;;;
2020/03/09 17:35:40;;;;;;;5;1.7;;;;;;;9.15;60.64941;937.6184;;;;
2020/03/09 17:38:05;;;;;;;11.5;2.1;;;;;;;9.18;60.58496;937.6372;;;;
2020/03/09 17:40:30;;;;;;;14.3;2.3;;;;;;;9.28;60.31543;937.6881;;;;
2020/03/09 17:42:55;;;;;;;10.2;4.1;;;;;;;9.17;59.18359;937.7109;;;;
2020/03/09 17:45:20;;;;;;;6.8;2.6;;;;;;;8.71;59.87109;937.7148;;;;
2020/03/09 17:47:45;;;;;;;6.2;2.3;;;;;;;8.93;59.61719;937.7247;;;;
2020/03/09 17:50:10;;;;;;;12.9;5.4;;;;;;;9.1;60.02832;937.7759;;;;
2020/03/09 17:52:35;;;;;;;5.1;2;;;;;;;9.03;61.71387;937.7629;;;;
2020/03/09 17:56:16;;;;;;;3.5;1.2;;;;;;;8.67;62.49219;937.8674;;;;
2020/03/09 17:58:41;;;;;;;5.3;1.7;;;;;;;8.52;62.90137;937.8686;;;;
2020/03/09 18:01:06;;;;;;;4.3;2.6;;;;;;;8.36;64.22949;937.9133;;;;
2020/03/09 18:03:31;;;;;;;4.3;2.4;;;;;;;8.23;65.20996;937.8712;;;;
2020/03/09 18:05:57;;;;;;;10.1;2.7;;;;;;;8.05;64.79688;937.9841;;;;
2020/03/09 18:08:22;;;;;;;8;2.5;;;;;;;7.88;65.58789;937.9998;;;;
2020/03/09 18:10:47;;;;;;;5.1;2.2;;;;;;;7.76;66.53418;938.0092;;;;
2020/03/09 18:13:12;;;;;;;7.7;3.4;;;;;;;7.68;66.8623;938.0875;;;;
2020/03/09 18:15:37;;;;;;;9.8;4.1;;;;;;;7.52;68.01758;938.1301;;;;
2020/03/09 18:18:02;;;;;;;5.5;4.1;;;;;;;7.3;69.2627;938.1853;;;;
2020/03/09 18:20:27;;;;;;;10.6;5.8;;;;;;;7.31;69.71875;938.1635;;;;
2020/03/09 18:22:52;;;;;;;6;4.2;;;;;;;7.32;69.80957;938.1912;;;;
2020/03/09 18:25:17;;;;;;;16.9;8.1;;;;;;;7.4;69.56152;938.1778;;;;
2020/03/09 18:27:42;;;;;;;10.5;5.7;;;;;;;7.27;69.81152;938.1474;;;;
2020/03/09 18:30:07;;;;;;;8.6;4.7;;;;;;;7.22;70.01953;938.2193;;;;
2020/03/09 18:32:33;;;;;;;9.9;6.6;;;;;;;7.1;69.91016;938.2908;;;;
2020/03/09 18:34:58;;;;;;;9;6.7;;;;;;;6.8;69.48633;938.3362;;;;
2020/03/09 18:37:23;;;;;;;7.7;4.8;;;;;;;6.88;70.13477;938.3734;;;;
2020/03/09 18:39:48;;;;;;;5.2;2.9;;;;;;;7;69.90332;938.3578;;;;
2020/03/09 18:42:13;;;;;;;7.5;2.9;;;;;;;6.96;70.19336;938.3911;;;;
2020/03/09 18:44:38;;;;;;;5;2.4;;;;;;;6.91;70.44336;938.4207;;;;
2020/03/09 18:47:03;;;;;;;5.7;2.9;;;;;;;6.84;70.7959;938.4763;;;;
2020/03/09 18:49:29;;;;;;;5.9;2.9;;;;;;;6.9;71.20117;938.4805;;;;
2020/03/09 18:51:54;;;;;;;4.5;2.7;;;;;;;6.97;71.12207;938.4728;;;;
2020/03/09 18:54:27;;;;;;;6.8;3;;;;;;;7.1;71.01953;938.4578;;;;
2020/03/09 18:56:52;;;;;;;5.3;2.7;;;;;;;7.04;71.7793;938.4628;;;;
2020/03/09 18:59:18;;;;;;;4;2.7;;;;;;;7.05;71.93848;938.5056;;;;
2020/03/09 19:01:42;;;;;;;4.1;2.7;;;;;;;7.11;72.55078;938.4984;;;;
2020/03/09 19:04:07;;;;;;;4.1;2.6;;;;;;;7.05;72.3457;938.5437;;;;
2020/03/09 19:06:32;;;;;;;5.1;3;;;;;;;7.08;72.4668;938.5928;;;;
2020/03/09 19:08:57;;;;;;;6.8;4.1;;;;;;;7.05;72.3252;938.52;;;;
2020/03/09 19:11:22;;;;;;;6.6;3.8;;;;;;;6.86;72.73438;938.5921;;;;
2020/03/09 19:13:47;;;;;;;3.9;3.3;;;;;;;6.94;72.26074;938.5458;;;;
2020/03/09 19:16:13;;;;;;;11.6;6.3;;;;;;;7.05;72.15332;938.5801;;;;
2020/03/09 19:18:37;;;;;;;6.8;4.9;;;;;;;6.93;72.49707;938.6238;;;;
2020/03/09 19:21:03;;;;;;;5.2;3.2;;;;;;;6.88;72.74902;938.6526;;;;
2020/03/09 19:23:28;;;;;;;4.6;2.7;;;;;;;6.85;72.9248;938.747;;;;
2020/03/09 19:25:53;;;;;;;5.5;3.9;;;;;;;6.82;72.94141;938.7668;;;;
2020/03/09 19:28:19;;;;;;;13.5;9.8;;;;;;;6.78;73.49219;938.7965;;;;
2020/03/09 19:30:44;;;;;;;8.2;5.8;;;;;;;6.78;73.59375;938.8875;;;;
2020/03/09 19:33:09;;;;;;;9.9;6.8;;;;;;;6.72;74;938.9128;;;;
2020/03/09 19:35:34;;;;;;;9.4;6.9;;;;;;;6.72;73.77539;938.867;;;;
2020/03/09 19:37:59;;;;;;;7.2;4.9;;;;;;;6.68;73.1123;939.0441;;;;
2020/03/09 19:40:24;;;;;;;6.3;5.1;;;;;;;6.61;74.00586;939.0266;;;;
2020/03/09 19:42:51;;;;;;;7.5;5.2;;;;;;;6.6;74.31934;938.9942;;;;
2020/03/09 19:45:14;;;;;;;8.6;5.9;;;;;;;6.67;74.12988;939.0834;;;;
2020/03/09 19:47:39;;;;;;;9.5;7;;;;;;;6.67;73.6416;939.081;;;;
2020/03/09 19:50:04;;;;;;;9.5;6.9;;;;;;;6.62;73.63184;939.067;;;;
2020/03/09 19:52:30;;;;;;;11.1;7;;;;;;;6.64;73.90625;939.1656;;;;
2020/03/09 19:54:55;;;;;;;10.7;7.1;;;;;;;6.66;73.80957;939.1694;;;;
2020/03/09 19:57:20;;;;;;;10.5;6.5;;;;;;;6.57;74.35938;939.1588;;;;
2020/03/09 19:59:46;;;;;;;13.2;8.7;;;;;;;6.47;74.46875;939.1404;;;;
2020/03/09 20:02:11;;;;;;;9.4;5.8;;;;;;;6.37;75.4668;939.0664;;;;
2020/03/09 20:04:36;;;;;;;15;10.4;;;;;;;6.36;75.86133;939.2844;;;;
2020/03/09 20:07:01;;;;;;;11.6;6.6;;;;;;;6.41;75.48535;939.2764;;;;
2020/03/09 20:09:27;;;;;;;6.6;5.4;;;;;;;6.37;75.50098;939.2759;;;;
2020/03/09 20:11:52;;;;;;;6.9;5.5;;;;;;;6.3;75.43359;939.3461;;;;
2020/03/09 20:14:17;;;;;;;8;3.9;;;;;;;6.4;75.42676;939.3368;;;;
2020/03/09 20:16:42;;;;;;;5.2;3.4;;;;;;;6.32;75.62891;939.3212;;;;
2020/03/09 20:19:07;;;;;;;5.3;4.2;;;;;;;6.25;75.7627;939.358;;;;
2020/03/09 20:21:32;;;;;;;7.1;5.2;;;;;;;6.18;75.85156;939.3963;;;;
2020/03/09 20:23:58;;;;;;;7.8;6;;;;;;;6.21;75.82324;939.4472;;;;
2020/03/09 20:26:23;;;;;;;11;7.7;;;;;;;6.13;75.81934;939.4233;;;;
2020/03/09 20:28:48;;;;;;;11.1;7.9;;;;;;;6.15;75.92676;939.3684;;;;
2020/03/09 20:31:13;;;;;;;11.7;9.2;;;;;;;6.07;75.96875;939.4034;;;;
2020/03/09 20:33:38;;;;;;;19.7;17.2;;;;;;;6.11;75.99707;939.4465;;;;
2020/03/09 20:36:03;;;;;;;8.3;5.8;;;;;;;6.17;75.63379;939.4299;;;;
2020/03/09 20:38:28;;;;;;;15.5;10.9;;;;;;;6.03;76.26563;939.4363;;;;
2020/03/09 20:40:53;;;;;;;8.7;6.9;;;;;;;6.12;76.34961;939.4483;;;;
2020/03/09 20:43:19;;;;;;;9.7;5.4;;;;;;;6.1;76.0752;939.4817;;;;
2020/03/09 20:45:44;;;;;;;6.7;4;;;;;;;6.05;76.29102;939.4328;;;;
2020/03/09 20:48:09;;;;;;;7.2;4;;;;;;;6.1;76.45898;939.424;;;;
2020/03/09 20:50:34;;;;;;;9.6;3.9;;;;;;;6.17;75.53418;939.4221;;;;
2020/03/09 20:52:59;;;;;;;7.7;4;;;;;;;6.09;75.74512;939.4364;;;;
2020/03/09 20:55:24;;;;;;;6.2;3.9;;;;;;;6.05;75.99707;939.4598;;;;
2020/03/09 20:57:50;;;;;;;7.3;5;;;;;;;6.04;76.12012;939.4342;;;;
2020/03/09 21:00:15;;;;;;;7.5;5;;;;;;;5.93;75.99902;939.363;;;;
2020/03/09 21:02:40;;;;;;;8.1;5.6;;;;;;;5.76;77.03223;939.2626;;;;
2020/03/09 21:05:05;;;;;;;7.3;5.1;;;;;;;5.75;76.93848;939.3783;;;;